Flight Track Log - Related Links

Times and Time Zones

All times are in EDT time to prevent confusion due to time zone crossing. See the ACA291 flight status page for this flight to view local times or setup timezone preferences in your user account.

Time Position Orientation Groundspeed Altitude Reporting Facility
EDT Latitude Longitude Course Direction KTS MPH feet Rate Location/Type
Fri 10:10:17 PM 49.1667 -123.2333 338° Northwest 160 184 1,600  Level Vancouver Center
Fri 10:11:17 PM 49.1833 -123.3167 287° West 200 230 3,200 2,100 Climbing Vancouver Center
Fri 10:12:00 PM 49.3240 -123.3407 327° Northwest  Level FlightAware Approximate
Fri 10:12:17 PM 49.2333 -123.3833 319° Northwest 250 288 5,800  Level Vancouver Center
Fri 10:13:00 PM 49.4186 -123.4149 333° Northwest  Level FlightAware Approximate
Fri 10:13:17 PM 49.3000 -123.4167 342° North 280 322 8,600  Level Vancouver Center
Fri 10:14:00 PM 49.5119 -123.4952 327° Northwest  Level FlightAware Approximate
Fri 10:14:17 PM 49.3833 -123.3667 21° North 300 345 9,800  Level Vancouver Center
Fri 10:15:00 PM 49.6088 -123.5638 338° Northwest  Level FlightAware Approximate
Fri 10:15:17 PM 49.4667 -123.3167 21° North 340 391 11,400  Level Vancouver Center
Fri 10:16:17 PM 49.5667 -123.2667 18° North 360 414 13,800 2,450 Climbing Vancouver Center
Fri 10:17:17 PM 49.6667 -123.2000 23° Northeast 370 426 16,300 2,200 Climbing Vancouver Center
Fri 10:18:17 PM 49.7667 -123.1833 North 380 437 18,200 1,950 Climbing Vancouver Center
Fri 10:19:17 PM 49.8833 -123.1833 360° North 400 460 20,200 1,950 Climbing Vancouver Center
Fri 10:20:17 PM 49.9833 -123.1833 360° North 410 472 22,100 1,700 Climbing Vancouver Center
Fri 10:21:17 PM 50.1000 -123.2500 340° North 410 472 23,600 1,550 Climbing Vancouver Center
Fri 10:22:17 PM 50.2000 -123.3333 332° Northwest 410 472 25,200 1,600 Climbing Vancouver Center
Fri 10:23:17 PM 50.3000 -123.4000 337° Northwest 420 483 26,800 1,400 Climbing Vancouver Center
Fri 10:24:17 PM 50.4000 -123.4833 332° Northwest 420 483 28,000 1,250 Climbing Vancouver Center
Fri 10:25:17 PM 50.5000 -123.5667 332° Northwest 420 483 29,300 1,450 Climbing Vancouver Center
Fri 10:26:17 PM 50.6167 -123.6667 331° Northwest 420 483 30,900 1,500 Climbing Vancouver Center
Fri 10:27:17 PM 50.7167 -123.7500 332° Northwest 420 483 32,300 1,300 Climbing Vancouver Center
Fri 10:28:17 PM 50.8167 -123.8167 337° Northwest 410 472 33,500 1,000 Climbing Vancouver Center
Fri 10:29:17 PM 50.9167 -123.9000 332° Northwest 410 472 34,300 1,000 Climbing Vancouver Center
Fri 10:30:17 PM 51.0167 -123.9833 332° Northwest 410 472 35,500 750 Climbing Vancouver Center
Fri 10:31:17 PM 51.1167 -124.0667 332° Northwest 400 460 35,800 250 Climbing Vancouver Center
Fri 10:32:17 PM 51.2167 -124.1500 332° Northwest 410 472 36,000 100 Climbing Vancouver Center
Fri 10:33:17 PM 51.3167 -124.2333 332° Northwest 410 472 36,000  Level Vancouver Center
Fri 10:34:17 PM 51.4333 -124.3000 340° North 410 472 36,000  Level Vancouver Center
Fri 10:35:17 PM 51.5333 -124.3833 333° Northwest 410 472 36,000  Level Vancouver Center
Fri 10:36:17 PM 51.6167 -124.4667 328° Northwest 410 472 36,000  Level Vancouver Center
Fri 10:37:17 PM 51.7333 -124.5833 328° Northwest 410 472 36,000  Level Vancouver Center
Fri 10:38:17 PM 51.8333 -124.6667 333° Northwest 420 483 36,000  Level Vancouver Center
Fri 10:39:17 PM 51.9333 -124.7500 333° Northwest 420 483 36,000  Level Vancouver Center
Fri 10:40:17 PM 52.0333 -124.8333 333° Northwest 420 483 36,000  Level Vancouver Center
Fri 10:41:17 PM 52.1333 -124.9167 333° Northwest 420 483 36,000  Level Vancouver Center
Fri 10:42:17 PM 52.2500 -125.0000 336° Northwest 420 483 36,000  Level Vancouver Center
Fri 10:43:17 PM 52.3500 -125.0833 333° Northwest 420 483 36,000  Level Vancouver Center
Fri 10:44:17 PM 52.4500 -125.2000 325° Northwest 420 483 36,000  Level Vancouver Center
Fri 10:45:17 PM 52.5500 -125.2833 333° Northwest 420 483 36,000  Level Vancouver Center
Fri 10:46:17 PM 52.6500 -125.3667 333° Northwest 420 483 36,000  Level Vancouver Center
Fri 10:47:17 PM 52.7667 -125.4500 337° Northwest 420 483 36,000  Level Vancouver Center
Fri 10:48:17 PM 52.8667 -125.5333 333° Northwest 420 483 36,000  Level Vancouver Center
Fri 10:49:17 PM 52.9833 -125.6500 329° Northwest 420 483 36,000  Level Vancouver Center
Fri 10:50:17 PM 53.0833 -125.7500 329° Northwest 420 483 36,000  Level Vancouver Center
Fri 10:51:17 PM 53.1833 -125.8333 333° Northwest 420 483 36,000  Level Vancouver Center
Fri 10:52:17 PM 53.2833 -125.9167 334° Northwest 420 483 36,000  Level Vancouver Center
Fri 10:53:17 PM 53.3833 -126.0000 334° Northwest 420 483 36,000  Level Vancouver Center
Fri 10:54:17 PM 53.4833 -126.1333 322° Northwest 420 483 36,000  Level Vancouver Center
Fri 10:55:17 PM 53.5833 -126.2167 334° Northwest 420 483 36,000  Level Vancouver Center
Fri 10:56:17 PM 53.7000 -126.3000 337° Northwest 420 483 36,000  Level Vancouver Center
Fri 10:57:17 PM 53.8000 -126.4000 329° Northwest 420 483 36,000  Level Vancouver Center
Fri 10:58:17 PM 53.9000 -126.5167 326° Northwest 420 483 36,000  Level Vancouver Center
Fri 10:59:17 PM 54.0000 -126.6000 334° Northwest 420 483 36,000  Level Vancouver Center
Fri 11:00:17 PM 54.1000 -126.7000 330° Northwest 420 483 36,000  Level Vancouver Center
Fri 11:01:17 PM 54.2167 -126.8000 333° Northwest 420 483 36,000  Level Vancouver Center
Fri 11:02:17 PM 54.3000 -126.8833 330° Northwest 420 483 36,000  Level Vancouver Center
Fri 11:03:17 PM 54.4000 -127.0000 326° Northwest 420 483 36,000  Level Vancouver Center
Fri 11:04:17 PM 54.5000 -127.1000 330° Northwest 420 483 36,000  Level Vancouver Center
Fri 11:05:17 PM 54.6167 -127.2000 334° Northwest 420 483 36,000  Level Vancouver Center
Fri 11:06:17 PM 54.7167 -127.2833 334° Northwest 410 472 36,000  Level Vancouver Center
Fri 11:07:17 PM 54.8167 -127.3833 330° Northwest 420 483 36,000  Level Vancouver Center
Fri 11:08:17 PM 54.9167 -127.4833 330° Northwest 420 483 36,000  Level Vancouver Center
Fri 11:09:17 PM 55.0167 -127.6000 326° Northwest 430 495 36,000  Level Vancouver Center
Fri 11:10:17 PM 55.1167 -127.7000 330° Northwest 430 495 36,000  Level Vancouver Center
Fri 11:11:17 PM 55.2167 -127.8000 330° Northwest 410 472 36,000  Level Vancouver Center
Fri 11:12:17 PM 55.3167 -127.9000 330° Northwest 400 460 36,000  Level Vancouver Center
Fri 11:13:17 PM 55.4333 -128.0333 327° Northwest 420 483 36,000  Level Vancouver Center
Fri 11:14:17 PM 55.5167 -128.1333 326° Northwest 440 506 36,000  Level Vancouver Center
Fri 11:15:17 PM 55.6333 -128.2333 334° Northwest 430 495 36,000  Level Vancouver Center
Fri 11:16:17 PM 55.7333 -128.3333 331° Northwest 430 495 36,000  Level Vancouver Center
Fri 11:17:17 PM 55.8500 -128.4667 327° Northwest 420 483 36,000  Level Vancouver Center
Fri 11:18:17 PM 55.9333 -128.5333 336° Northwest 420 483 36,000  Level Vancouver Center
Fri 11:19:17 PM 56.0333 -128.6667 323° Northwest 460 529 36,000  Level Vancouver Center
Fri 11:20:17 PM 56.1500 -128.7667 334° Northwest 430 495 36,000  Level Vancouver Center
Fri 11:21:17 PM 56.2500 -128.9000 323° Northwest 420 483 36,000  Level Vancouver Center
Fri 11:22:17 PM 56.3500 -129.0000 331° Northwest 430 495 36,000  Level Vancouver Center
Fri 11:23:17 PM 56.4333 -129.1000 326° Northwest 420 483 36,000  Level Vancouver Center
Fri 11:24:17 PM 56.5500 -129.2167 331° Northwest 420 483 36,000  Level Vancouver Center
Fri 11:25:17 PM 56.6500 -129.3167 331° Northwest 440 506 36,000  Level Vancouver Center
Fri 11:26:17 PM 56.7500 -129.4500 324° Northwest 420 483 36,000  Level Vancouver Center
Fri 11:27:17 PM 56.8500 -129.5500 331° Northwest 420 483 36,000  Level Vancouver Center
Fri 11:28:17 PM 56.9500 -129.7000 321° Northwest 410 472 36,000  Level Vancouver Center
Fri 11:29:20 PM 57.0333 -129.8333 319° Northwest 360 414 36,000  Level Vancouver Center
Fri 11:30:20 PM 57.1333 -129.9333 332° Northwest 410 472 36,000  Level Vancouver Center
Fri 11:32:00 PM 57.2810 -130.1182 326° Northwest  Level FlightAware Approximate
Fri 11:39:00 PM 57.8921 -130.9272 324° Northwest  Level FlightAware Approximate
Fri 11:40:00 PM 57.9778 -131.0480 323° Northwest  Level FlightAware Approximate
Fri 11:41:00 PM 58.0634 -131.1695 323° Northwest  Level FlightAware Approximate
Fri 11:42:00 PM 58.1488 -131.2915 323° Northwest  Level FlightAware Approximate
Fri 11:43:00 PM 58.2342 -131.4141 323° Northwest  Level FlightAware Approximate
Fri 11:44:00 PM 58.3195 -131.5372 324° Northwest  Level FlightAware Approximate
Fri 11:45:00 PM 58.4055 -131.6586 324° Northwest  Level FlightAware Approximate
Fri 11:46:00 PM 58.4915 -131.7805 323° Northwest  Level FlightAware Approximate
Fri 11:47:00 PM 58.5774 -131.9030 323° Northwest  Level FlightAware Approximate
Fri 11:48:00 PM 58.6626 -132.0275 322° Northwest  Level FlightAware Approximate
Fri 11:49:00 PM 58.7467 -132.1550 322° Northwest  Level FlightAware Approximate
Fri 11:50:00 PM 58.8307 -132.2831 322° Northwest  Level FlightAware Approximate
Fri 11:51:00 PM 58.9145 -132.4119 322° Northwest  Level FlightAware Approximate
Fri 11:52:00 PM 59.0000 -132.5366 324° Northwest  Level FlightAware Approximate
Fri 11:53:00 PM 59.0854 -132.6621 322° Northwest  Level FlightAware Approximate
Fri 11:54:00 PM 59.1694 -132.7916 322° Northwest  Level FlightAware Approximate
Fri 11:55:00 PM 59.2531 -132.9218 320° Northwest  Level FlightAware Approximate
Fri 11:56:00 PM 59.3361 -133.0541 323° Northwest  Level FlightAware Approximate
Fri 11:57:00 PM 59.4190 -133.1870 322° Northwest  Level FlightAware Approximate
Fri 11:58:00 PM 59.5036 -133.3163 322° Northwest  Level FlightAware Approximate
Fri 11:59:00 PM 59.5879 -133.4463 322° Northwest  Level FlightAware Approximate
Sat 12:00:00 AM 59.6715 -133.5787 321° Northwest  Level FlightAware Approximate
Sat 12:01:00 AM 59.7541 -133.7137 321° Northwest  Level FlightAware Approximate
Sat 12:02:00 AM 59.8368 -133.8489 321° Northwest  Level FlightAware Approximate
Sat 12:03:00 AM 59.9201 -133.9829 321° Northwest  Level FlightAware Approximate
Sat 12:04:00 AM 60.0032 -134.1176 321° Northwest  Level FlightAware Approximate
Sat 12:05:00 AM 60.0852 -134.2554 320° Northwest  Level FlightAware Approximate
Sat 12:06:00 AM 60.1675 -134.3928 323° Northwest  Level FlightAware Approximate
Sat 12:07:00 AM 60.2533 -134.5215 323° Northwest  Level FlightAware Approximate
Sat 12:08:00 AM 60.3367 -134.6570 320° Northwest  Level FlightAware Approximate
Sat 12:09:00 AM 60.4186 -134.7964 320° Northwest  Level FlightAware Approximate
Sat 12:10:00 AM 60.5016 -134.9336 321° Northwest  Level FlightAware Approximate
Sat 12:11:00 AM 60.5833 -135.0714 270° West  Level FlightAware Approximate
Sat 12:12:00 AM 60.6678 -135.0881 18° North  Level FlightAware Approximate
Sat 12:13:00 AM 60.7000 -135.0667 18° North  Level FlightAware Approximate
Sat 12:14:00 AM 60.7095 -135.0673 18° North  Level Estimated
Sat 12:15:00 AM 60.7095 -135.0673 18° North  Level Estimated
Sat 12:16:00 AM 60.7095 -135.0673 18° North  Level Estimated
Sat 12:17:00 AM 60.7095 -135.0673 18° North  Level Estimated
Sat 12:18:00 AM 60.7095 -135.0673 18° North  Level Estimated
Sat 12:19:00 AM 60.7095 -135.0673 18° North  Level Estimated
Sat 12:20:00 AM 60.7095 -135.0673 18° North  Level Estimated
Sat 12:21:00 AM 60.7095 -135.0673 18° North  Level Estimated

Login

Don't have an account? Register now (free) for customized features, flight alerts, and more!